sensor_id;sensor_type;location;lat;lon;timestamp;P1;durP1;ratioP1;P2;durP2;ratioP2
20207;SDS011;10263;48.716;8.760;2024-01-30T00:01:17;13.63;;;7.37;;
20207;SDS011;10263;48.716;8.760;2024-01-30T00:03:44;10.60;;;6.60;;
20207;SDS011;10263;48.716;8.760;2024-01-30T00:06:12;10.27;;;6.70;;
20207;SDS011;10263;48.716;8.760;2024-01-30T00:08:39;8.17;;;5.67;;
20207;SDS011;10263;48.716;8.760;2024-01-30T00:11:07;13.67;;;7.97;;
20207;SDS011;10263;48.716;8.760;2024-01-30T00:13:33;12.60;;;7.60;;
20207;SDS011;10263;48.716;8.760;2024-01-30T00:16:00;12.47;;;7.60;;
20207;SDS011;10263;48.716;8.760;2024-01-30T00:18:27;14.10;;;8.73;;
20207;SDS011;10263;48.716;8.760;2024-01-30T00:20:54;12.77;;;8.73;;
20207;SDS011;10263;48.716;8.760;2024-01-30T00:23:22;14.27;;;7.90;;
20207;SDS011;10263;48.716;8.760;2024-01-30T00:25:49;11.43;;;7.77;;
20207;SDS011;10263;48.716;8.760;2024-01-30T00:28:16;11.03;;;6.80;;
20207;SDS011;10263;48.716;8.760;2024-01-30T00:30:43;15.47;;;6.93;;
20207;SDS011;10263;48.716;8.760;2024-01-30T00:33:10;13.33;;;6.80;;
20207;SDS011;10263;48.716;8.760;2024-01-30T00:35:37;13.87;;;6.33;;
20207;SDS011;10263;48.716;8.760;2024-01-30T00:38:04;12.07;;;6.90;;
20207;SDS011;10263;48.716;8.760;2024-01-30T00:40:34;9.77;;;6.80;;
20207;SDS011;10263;48.716;8.760;2024-01-30T00:43:01;12.03;;;6.77;;
20207;SDS011;10263;48.716;8.760;2024-01-30T00:45:28;12.33;;;7.07;;
20207;SDS011;10263;48.716;8.760;2024-01-30T00:47:55;10.47;;;6.33;;
20207;SDS011;10263;48.716;8.760;2024-01-30T00:50:22;9.13;;;5.60;;
20207;SDS011;10263;48.716;8.760;2024-01-30T00:52:49;6.17;;;3.53;;
20207;SDS011;10263;48.716;8.760;2024-01-30T00:55:16;6.13;;;3.90;;
20207;SDS011;10263;48.716;8.760;2024-01-30T00:57:44;5.77;;;4.30;;
20207;SDS011;10263;48.716;8.760;2024-01-30T01:00:12;8.00;;;5.07;;
20207;SDS011;10263;48.716;8.760;2024-01-30T01:02:42;6.13;;;4.23;;
20207;SDS011;10263;48.716;8.760;2024-01-30T01:05:10;6.33;;;4.60;;
20207;SDS011;10263;48.716;8.760;2024-01-30T01:07:36;7.80;;;5.67;;
20207;SDS011;10263;48.716;8.760;2024-01-30T01:10:05;7.03;;;4.90;;
20207;SDS011;10263;48.716;8.760;2024-01-30T01:12:33;7.03;;;4.90;;
20207;SDS011;10263;48.716;8.760;2024-01-30T01:15:01;8.80;;;4.97;;
20207;SDS011;10263;48.716;8.760;2024-01-30T01:17:28;8.97;;;5.23;;
20207;SDS011;10263;48.716;8.760;2024-01-30T01:19:55;8.13;;;5.73;;
20207;SDS011;10263;48.716;8.760;2024-01-30T01:22:22;8.53;;;5.30;;
20207;SDS011;10263;48.716;8.760;2024-01-30T01:24:49;7.87;;;5.47;;
20207;SDS011;10263;48.716;8.760;2024-01-30T01:27:16;5.60;;;4.10;;
20207;SDS011;10263;48.716;8.760;2024-01-30T01:29:43;7.77;;;4.50;;
20207;SDS011;10263;48.716;8.760;2024-01-30T01:32:11;6.23;;;4.27;;
20207;SDS011;10263;48.716;8.760;2024-01-30T01:34:38;5.13;;;4.13;;
20207;SDS011;10263;48.716;8.760;2024-01-30T01:37:05;6.10;;;3.80;;
20207;SDS011;10263;48.716;8.760;2024-01-30T01:39:32;5.37;;;3.73;;
20207;SDS011;10263;48.716;8.760;2024-01-30T01:41:59;4.53;;;3.30;;
20207;SDS011;10263;48.716;8.760;2024-01-30T01:44:26;4.70;;;3.67;;
20207;SDS011;10263;48.716;8.760;2024-01-30T01:46:53;5.70;;;3.50;;
20207;SDS011;10263;48.716;8.760;2024-01-30T01:49:22;4.87;;;3.40;;
20207;SDS011;10263;48.716;8.760;2024-01-30T01:51:50;5.90;;;4.07;;
20207;SDS011;10263;48.716;8.760;2024-01-30T01:54:20;5.07;;;3.77;;
20207;SDS011;10263;48.716;8.760;2024-01-30T01:56:47;4.07;;;3.43;;
20207;SDS011;10263;48.716;8.760;2024-01-30T01:59:14;6.70;;;3.70;;
20207;SDS011;10263;48.716;8.760;2024-01-30T02:01:41;7.60;;;4.20;;
20207;SDS011;10263;48.716;8.760;2024-01-30T02:04:08;5.27;;;3.63;;
20207;SDS011;10263;48.716;8.760;2024-01-30T02:06:37;5.87;;;3.70;;
20207;SDS011;10263;48.716;8.760;2024-01-30T02:09:04;5.03;;;3.93;;
20207;SDS011;10263;48.716;8.760;2024-01-30T02:11:31;6.47;;;3.93;;
20207;SDS011;10263;48.716;8.760;2024-01-30T02:14:01;5.03;;;3.80;;
20207;SDS011;10263;48.716;8.760;2024-01-30T02:16:28;5.80;;;3.97;;
20207;SDS011;10263;48.716;8.760;2024-01-30T02:18:55;5.30;;;3.87;;
20207;SDS011;10263;48.716;8.760;2024-01-30T02:21:23;5.23;;;3.20;;
20207;SDS011;10263;48.716;8.760;2024-01-30T02:23:51;4.43;;;3.33;;
20207;SDS011;10263;48.716;8.760;2024-01-30T02:26:19;4.93;;;3.33;;
20207;SDS011;10263;48.716;8.760;2024-01-30T02:28:46;5.63;;;3.60;;
20207;SDS011;10263;48.716;8.760;2024-01-30T02:31:13;4.47;;;3.40;;
20207;SDS011;10263;48.716;8.760;2024-01-30T02:33:40;4.40;;;3.50;;
20207;SDS011;10263;48.716;8.760;2024-01-30T02:39:12;4.27;;;3.10;;
20207;SDS011;10263;48.716;8.760;2024-01-30T02:41:39;3.83;;;3.07;;
20207;SDS011;10263;48.716;8.760;2024-01-30T02:44:06;5.03;;;3.20;;
20207;SDS011;10263;48.716;8.760;2024-01-30T02:46:33;4.53;;;3.10;;
20207;SDS011;10263;48.716;8.760;2024-01-30T02:49:00;4.63;;;3.57;;
20207;SDS011;10263;48.716;8.760;2024-01-30T02:51:27;5.23;;;3.57;;
20207;SDS011;10263;48.716;8.760;2024-01-30T02:53:55;6.07;;;4.00;;
20207;SDS011;10263;48.716;8.760;2024-01-30T02:56:21;6.30;;;4.07;;
20207;SDS011;10263;48.716;8.760;2024-01-30T02:58:48;6.30;;;3.90;;
20207;SDS011;10263;48.716;8.760;2024-01-30T03:01:15;7.97;;;4.20;;
20207;SDS011;10263;48.716;8.760;2024-01-30T03:03:42;9.30;;;4.67;;
20207;SDS011;10263;48.716;8.760;2024-01-30T03:06:09;6.33;;;4.03;;
20207;SDS011;10263;48.716;8.760;2024-01-30T03:08:36;7.67;;;4.50;;
20207;SDS011;10263;48.716;8.760;2024-01-30T03:11:04;8.90;;;4.70;;
20207;SDS011;10263;48.716;8.760;2024-01-30T03:13:31;6.83;;;4.07;;
20207;SDS011;10263;48.716;8.760;2024-01-30T03:15:58;8.03;;;4.03;;
20207;SDS011;10263;48.716;8.760;2024-01-30T03:18:25;6.33;;;3.50;;
20207;SDS011;10263;48.716;8.760;2024-01-30T03:20:52;5.20;;;3.70;;
20207;SDS011;10263;48.716;8.760;2024-01-30T03:23:19;7.67;;;3.53;;
20207;SDS011;10263;48.716;8.760;2024-01-30T03:25:46;5.60;;;3.07;;
20207;SDS011;10263;48.716;8.760;2024-01-30T03:28:14;4.50;;;3.40;;
20207;SDS011;10263;48.716;8.760;2024-01-30T03:30:41;5.67;;;4.00;;
20207;SDS011;10263;48.716;8.760;2024-01-30T03:33:08;5.40;;;3.13;;
20207;SDS011;10263;48.716;8.760;2024-01-30T03:35:35;6.80;;;3.73;;
20207;SDS011;10263;48.716;8.760;2024-01-30T03:38:02;7.77;;;3.73;;
20207;SDS011;10263;48.716;8.760;2024-01-30T03:40:29;6.37;;;3.87;;
20207;SDS011;10263;48.716;8.760;2024-01-30T03:42:56;5.63;;;3.93;;
20207;SDS011;10263;48.716;8.760;2024-01-30T03:45:24;9.00;;;3.57;;
20207;SDS011;10263;48.716;8.760;2024-01-30T03:47:51;6.67;;;3.70;;
20207;SDS011;10263;48.716;8.760;2024-01-30T03:50:18;5.30;;;3.77;;
20207;SDS011;10263;48.716;8.760;2024-01-30T03:52:45;6.40;;;4.10;;
20207;SDS011;10263;48.716;8.760;2024-01-30T03:55:12;5.53;;;3.87;;
20207;SDS011;10263;48.716;8.760;2024-01-30T03:57:39;6.40;;;3.73;;
20207;SDS011;10263;48.716;8.760;2024-01-30T04:00:06;5.93;;;4.30;;
20207;SDS011;10263;48.716;8.760;2024-01-30T04:02:39;6.30;;;4.03;;
20207;SDS011;10263;48.716;8.760;2024-01-30T04:05:06;6.37;;;4.37;;
20207;SDS011;10263;48.716;8.760;2024-01-30T04:07:33;6.53;;;4.07;;
20207;SDS011;10263;48.716;8.760;2024-01-30T04:10:00;4.23;;;3.43;;
20207;SDS011;10263;48.716;8.760;2024-01-30T04:12:27;7.77;;;5.30;;
20207;SDS011;10263;48.716;8.760;2024-01-30T04:14:54;5.70;;;3.57;;
20207;SDS011;10263;48.716;8.760;2024-01-30T04:17:21;5.57;;;3.67;;
20207;SDS011;10263;48.716;8.760;2024-01-30T04:19:49;6.47;;;4.00;;
20207;SDS011;10263;48.716;8.760;2024-01-30T04:22:16;5.87;;;4.07;;
20207;SDS011;10263;48.716;8.760;2024-01-30T04:24:43;8.70;;;4.40;;
20207;SDS011;10263;48.716;8.760;2024-01-30T04:27:09;4.80;;;3.70;;
20207;SDS011;10263;48.716;8.760;2024-01-30T04:29:37;6.30;;;4.27;;
20207;SDS011;10263;48.716;8.760;2024-01-30T04:32:04;6.03;;;3.87;;
20207;SDS011;10263;48.716;8.760;2024-01-30T04:34:31;7.07;;;3.90;;
20207;SDS011;10263;48.716;8.760;2024-01-30T04:36:59;5.27;;;3.33;;
20207;SDS011;10263;48.716;8.760;2024-01-30T04:39:26;6.87;;;4.17;;
20207;SDS011;10263;48.716;8.760;2024-01-30T04:41:53;4.73;;;3.60;;
20207;SDS011;10263;48.716;8.760;2024-01-30T04:44:20;6.63;;;3.90;;
20207;SDS011;10263;48.716;8.760;2024-01-30T04:46:47;5.77;;;3.90;;
20207;SDS011;10263;48.716;8.760;2024-01-30T04:49:13;5.43;;;4.00;;
20207;SDS011;10263;48.716;8.760;2024-01-30T04:51:40;6.47;;;3.70;;
20207;SDS011;10263;48.716;8.760;2024-01-30T04:54:09;5.37;;;3.57;;
20207;SDS011;10263;48.716;8.760;2024-01-30T04:56:35;6.17;;;4.00;;
20207;SDS011;10263;48.716;8.760;2024-01-30T04:59:04;6.23;;;3.77;;
20207;SDS011;10263;48.716;8.760;2024-01-30T05:01:33;5.37;;;3.40;;
20207;SDS011;10263;48.716;8.760;2024-01-30T05:04:00;5.40;;;3.50;;
20207;SDS011;10263;48.716;8.760;2024-01-30T05:06:28;6.63;;;4.20;;
20207;SDS011;10263;48.716;8.760;2024-01-30T05:08:56;6.23;;;4.50;;
20207;SDS011;10263;48.716;8.760;2024-01-30T05:11:24;5.00;;;4.23;;
20207;SDS011;10263;48.716;8.760;2024-01-30T05:13:50;4.87;;;3.70;;
20207;SDS011;10263;48.716;8.760;2024-01-30T05:16:17;7.13;;;4.17;;
20207;SDS011;10263;48.716;8.760;2024-01-30T05:18:44;7.30;;;4.07;;
20207;SDS011;10263;48.716;8.760;2024-01-30T05:21:11;6.77;;;4.00;;
20207;SDS011;10263;48.716;8.760;2024-01-30T05:23:38;5.93;;;4.30;;
20207;SDS011;10263;48.716;8.760;2024-01-30T05:26:06;5.13;;;3.60;;
20207;SDS011;10263;48.716;8.760;2024-01-30T05:28:35;5.43;;;3.50;;
20207;SDS011;10263;48.716;8.760;2024-01-30T05:31:02;6.60;;;3.70;;
20207;SDS011;10263;48.716;8.760;2024-01-30T05:33:28;5.80;;;3.30;;
20207;SDS011;10263;48.716;8.760;2024-01-30T05:35:55;3.53;;;2.77;;
20207;SDS011;10263;48.716;8.760;2024-01-30T05:38:22;4.63;;;3.23;;
20207;SDS011;10263;48.716;8.760;2024-01-30T05:40:49;4.63;;;2.73;;
20207;SDS011;10263;48.716;8.760;2024-01-30T05:43:16;5.30;;;3.73;;
20207;SDS011;10263;48.716;8.760;2024-01-30T05:45:45;4.13;;;2.77;;
20207;SDS011;10263;48.716;8.760;2024-01-30T05:48:11;4.17;;;3.40;;
20207;SDS011;10263;48.716;8.760;2024-01-30T05:50:38;5.80;;;3.77;;
20207;SDS011;10263;48.716;8.760;2024-01-30T05:53:05;4.50;;;3.50;;
20207;SDS011;10263;48.716;8.760;2024-01-30T05:55:32;4.77;;;3.67;;
20207;SDS011;10263;48.716;8.760;2024-01-30T05:57:59;7.70;;;3.67;;
20207;SDS011;10263;48.716;8.760;2024-01-30T06:00:26;5.60;;;3.17;;
20207;SDS011;10263;48.716;8.760;2024-01-30T06:02:54;4.20;;;3.13;;
20207;SDS011;10263;48.716;8.760;2024-01-30T06:05:21;4.53;;;3.73;;
20207;SDS011;10263;48.716;8.760;2024-01-30T06:07:48;5.83;;;3.70;;
20207;SDS011;10263;48.716;8.760;2024-01-30T06:10:15;4.53;;;3.33;;
20207;SDS011;10263;48.716;8.760;2024-01-30T06:12:42;5.60;;;3.30;;
20207;SDS011;10263;48.716;8.760;2024-01-30T06:15:09;4.37;;;3.30;;
20207;SDS011;10263;48.716;8.760;2024-01-30T06:17:37;4.43;;;3.40;;
20207;SDS011;10263;48.716;8.760;2024-01-30T06:20:07;5.63;;;3.23;;
20207;SDS011;10263;48.716;8.760;2024-01-30T06:22:33;5.17;;;3.43;;
20207;SDS011;10263;48.716;8.760;2024-01-30T06:25:00;6.13;;;3.87;;
20207;SDS011;10263;48.716;8.760;2024-01-30T06:27:27;9.43;;;4.33;;
20207;SDS011;10263;48.716;8.760;2024-01-30T06:29:54;5.30;;;3.60;;
20207;SDS011;10263;48.716;8.760;2024-01-30T06:32:21;3.90;;;3.50;;
20207;SDS011;10263;48.716;8.760;2024-01-30T06:34:48;5.17;;;3.53;;
20207;SDS011;10263;48.716;8.760;2024-01-30T06:37:16;5.67;;;3.97;;
20207;SDS011;10263;48.716;8.760;2024-01-30T06:39:43;4.97;;;3.70;;
20207;SDS011;10263;48.716;8.760;2024-01-30T06:42:10;4.50;;;3.60;;
20207;SDS011;10263;48.716;8.760;2024-01-30T06:44:37;5.87;;;4.13;;
20207;SDS011;10263;48.716;8.760;2024-01-30T06:47:04;5.93;;;4.00;;
20207;SDS011;10263;48.716;8.760;2024-01-30T06:49:31;6.07;;;4.40;;
20207;SDS011;10263;48.716;8.760;2024-01-30T06:51:58;5.13;;;3.97;;
20207;SDS011;10263;48.716;8.760;2024-01-30T06:54:26;4.60;;;3.17;;
20207;SDS011;10263;48.716;8.760;2024-01-30T06:56:53;8.90;;;3.83;;
20207;SDS011;10263;48.716;8.760;2024-01-30T06:59:20;4.20;;;3.70;;
20207;SDS011;10263;48.716;8.760;2024-01-30T07:01:46;9.47;;;4.13;;
20207;SDS011;10263;48.716;8.760;2024-01-30T07:04:14;7.70;;;4.20;;
20207;SDS011;10263;48.716;8.760;2024-01-30T07:06:41;6.17;;;4.30;;
20207;SDS011;10263;48.716;8.760;2024-01-30T07:09:07;6.67;;;4.33;;
20207;SDS011;10263;48.716;8.760;2024-01-30T07:11:36;7.97;;;3.73;;
20207;SDS011;10263;48.716;8.760;2024-01-30T07:14:02;5.03;;;4.10;;
20207;SDS011;10263;48.716;8.760;2024-01-30T07:16:29;6.40;;;4.17;;
20207;SDS011;10263;48.716;8.760;2024-01-30T07:18:56;7.93;;;4.00;;
20207;SDS011;10263;48.716;8.760;2024-01-30T07:21:23;11.40;;;4.60;;
20207;SDS011;10263;48.716;8.760;2024-01-30T07:23:53;7.53;;;4.83;;
20207;SDS011;10263;48.716;8.760;2024-01-30T07:26:20;7.23;;;4.80;;
20207;SDS011;10263;48.716;8.760;2024-01-30T07:28:48;6.33;;;4.60;;
20207;SDS011;10263;48.716;8.760;2024-01-30T07:31:15;6.20;;;4.93;;
20207;SDS011;10263;48.716;8.760;2024-01-30T07:33:42;5.90;;;4.50;;
20207;SDS011;10263;48.716;8.760;2024-01-30T07:36:09;7.37;;;5.30;;
20207;SDS011;10263;48.716;8.760;2024-01-30T07:38:35;8.80;;;5.90;;
20207;SDS011;10263;48.716;8.760;2024-01-30T07:41:03;7.50;;;4.83;;
20207;SDS011;10263;48.716;8.760;2024-01-30T07:43:30;7.87;;;5.53;;
20207;SDS011;10263;48.716;8.760;2024-01-30T07:45:58;6.77;;;4.93;;
20207;SDS011;10263;48.716;8.760;2024-01-30T07:48:26;7.63;;;4.47;;
20207;SDS011;10263;48.716;8.760;2024-01-30T07:50:53;6.93;;;3.97;;
20207;SDS011;10263;48.716;8.760;2024-01-30T07:53:20;4.70;;;3.83;;
20207;SDS011;10263;48.716;8.760;2024-01-30T07:55:46;4.57;;;3.63;;
20207;SDS011;10263;48.716;8.760;2024-01-30T07:58:13;7.43;;;3.50;;
20207;SDS011;10263;48.716;8.760;2024-01-30T08:00:40;7.30;;;4.17;;
20207;SDS011;10263;48.716;8.760;2024-01-30T08:03:08;5.70;;;3.43;;
20207;SDS011;10263;48.716;8.760;2024-01-30T08:05:35;6.87;;;4.50;;
20207;SDS011;10263;48.716;8.760;2024-01-30T08:08:03;7.93;;;4.57;;
20207;SDS011;10263;48.716;8.760;2024-01-30T08:10:30;7.70;;;4.93;;
20207;SDS011;10263;48.716;8.760;2024-01-30T08:12:57;9.40;;;4.67;;
20207;SDS011;10263;48.716;8.760;2024-01-30T08:15:23;7.57;;;4.27;;
20207;SDS011;10263;48.716;8.760;2024-01-30T08:17:51;11.07;;;5.40;;
20207;SDS011;10263;48.716;8.760;2024-01-30T08:20:22;7.50;;;4.43;;
20207;SDS011;10263;48.716;8.760;2024-01-30T08:22:49;6.33;;;4.20;;
20207;SDS011;10263;48.716;8.760;2024-01-30T08:25:16;5.87;;;4.20;;
20207;SDS011;10263;48.716;8.760;2024-01-30T08:27:43;5.10;;;4.17;;
20207;SDS011;10263;48.716;8.760;2024-01-30T08:30:10;5.53;;;4.17;;
20207;SDS011;10263;48.716;8.760;2024-01-30T08:32:37;4.73;;;3.50;;
20207;SDS011;10263;48.716;8.760;2024-01-30T08:35:04;4.87;;;3.93;;
20207;SDS011;10263;48.716;8.760;2024-01-30T08:37:33;5.43;;;3.83;;
20207;SDS011;10263;48.716;8.760;2024-01-30T08:40:00;8.60;;;4.00;;
20207;SDS011;10263;48.716;8.760;2024-01-30T08:42:27;5.57;;;4.07;;
20207;SDS011;10263;48.716;8.760;2024-01-30T08:44:54;5.60;;;4.07;;
20207;SDS011;10263;48.716;8.760;2024-01-30T08:47:21;6.20;;;4.00;;
20207;SDS011;10263;48.716;8.760;2024-01-30T08:49:48;5.03;;;3.57;;
20207;SDS011;10263;48.716;8.760;2024-01-30T08:52:15;6.43;;;3.83;;
20207;SDS011;10263;48.716;8.760;2024-01-30T08:54:43;6.80;;;3.60;;
20207;SDS011;10263;48.716;8.760;2024-01-30T08:57:10;5.53;;;3.23;;
20207;SDS011;10263;48.716;8.760;2024-01-30T08:59:37;5.63;;;3.23;;
20207;SDS011;10263;48.716;8.760;2024-01-30T09:02:05;5.07;;;3.33;;
20207;SDS011;10263;48.716;8.760;2024-01-30T09:04:31;5.27;;;3.67;;
20207;SDS011;10263;48.716;8.760;2024-01-30T09:06:58;5.80;;;3.53;;
20207;SDS011;10263;48.716;8.760;2024-01-30T09:09:25;5.87;;;3.87;;
20207;SDS011;10263;48.716;8.760;2024-01-30T09:11:53;7.87;;;4.53;;
20207;SDS011;10263;48.716;8.760;2024-01-30T09:14:20;8.63;;;5.47;;
20207;SDS011;10263;48.716;8.760;2024-01-30T09:16:46;10.17;;;6.40;;
20207;SDS011;10263;48.716;8.760;2024-01-30T09:19:14;10.13;;;5.40;;
20207;SDS011;10263;48.716;8.760;2024-01-30T09:21:41;6.40;;;4.27;;
20207;SDS011;10263;48.716;8.760;2024-01-30T09:24:07;6.63;;;4.40;;
20207;SDS011;10263;48.716;8.760;2024-01-30T09:26:34;7.07;;;4.10;;
20207;SDS011;10263;48.716;8.760;2024-01-30T09:29:02;10.73;;;4.60;;
20207;SDS011;10263;48.716;8.760;2024-01-30T09:31:29;6.63;;;4.57;;
20207;SDS011;10263;48.716;8.760;2024-01-30T09:33:56;7.07;;;4.83;;
20207;SDS011;10263;48.716;8.760;2024-01-30T09:36:23;10.90;;;4.63;;
20207;SDS011;10263;48.716;8.760;2024-01-30T09:38:50;5.17;;;3.60;;
20207;SDS011;10263;48.716;8.760;2024-01-30T09:41:17;6.33;;;4.00;;
20207;SDS011;10263;48.716;8.760;2024-01-30T09:43:46;6.87;;;3.43;;
20207;SDS011;10263;48.716;8.760;2024-01-30T09:46:16;7.13;;;3.53;;
20207;SDS011;10263;48.716;8.760;2024-01-30T09:48:44;6.10;;;4.13;;
20207;SDS011;10263;48.716;8.760;2024-01-30T09:51:13;6.70;;;3.43;;
20207;SDS011;10263;48.716;8.760;2024-01-30T09:53:41;6.10;;;3.73;;
20207;SDS011;10263;48.716;8.760;2024-01-30T09:56:09;4.93;;;3.33;;
20207;SDS011;10263;48.716;8.760;2024-01-30T09:58:36;4.43;;;3.60;;
20207;SDS011;10263;48.716;8.760;2024-01-30T10:01:04;4.70;;;3.50;;
20207;SDS011;10263;48.716;8.760;2024-01-30T10:03:33;4.90;;;3.70;;
20207;SDS011;10263;48.716;8.760;2024-01-30T10:06:00;4.67;;;4.07;;
20207;SDS011;10263;48.716;8.760;2024-01-30T10:08:27;4.77;;;3.50;;
20207;SDS011;10263;48.716;8.760;2024-01-30T10:10:54;4.40;;;3.13;;
20207;SDS011;10263;48.716;8.760;2024-01-30T10:13:21;4.93;;;3.50;;
20207;SDS011;10263;48.716;8.760;2024-01-30T10:15:48;8.53;;;3.70;;
20207;SDS011;10263;48.716;8.760;2024-01-30T10:18:16;4.80;;;3.83;;
20207;SDS011;10263;48.716;8.760;2024-01-30T10:20:45;4.63;;;3.53;;
20207;SDS011;10263;48.716;8.760;2024-01-30T10:23:12;4.63;;;3.80;;
20207;SDS011;10263;48.716;8.760;2024-01-30T10:25:39;5.17;;;3.97;;
20207;SDS011;10263;48.716;8.760;2024-01-30T10:28:06;6.57;;;4.13;;
20207;SDS011;10263;48.716;8.760;2024-01-30T10:30:33;8.00;;;5.07;;
20207;SDS011;10263;48.716;8.760;2024-01-30T10:33:00;5.90;;;4.40;;
20207;SDS011;10263;48.716;8.760;2024-01-30T10:35:27;6.10;;;4.60;;
20207;SDS011;10263;48.716;8.760;2024-01-30T10:37:55;5.57;;;4.23;;
20207;SDS011;10263;48.716;8.760;2024-01-30T10:40:24;6.60;;;4.17;;
20207;SDS011;10263;48.716;8.760;2024-01-30T10:42:53;5.27;;;3.93;;
20207;SDS011;10263;48.716;8.760;2024-01-30T10:45:22;6.90;;;4.10;;
20207;SDS011;10263;48.716;8.760;2024-01-30T10:47:53;7.70;;;5.10;;
20207;SDS011;10263;48.716;8.760;2024-01-30T10:50:23;6.50;;;4.50;;
20207;SDS011;10263;48.716;8.760;2024-01-30T10:52:51;5.63;;;3.90;;
20207;SDS011;10263;48.716;8.760;2024-01-30T10:55:20;7.20;;;4.50;;
20207;SDS011;10263;48.716;8.760;2024-01-30T10:57:49;4.80;;;3.90;;
20207;SDS011;10263;48.716;8.760;2024-01-30T11:00:16;5.03;;;3.60;;
20207;SDS011;10263;48.716;8.760;2024-01-30T11:02:45;7.20;;;4.00;;
20207;SDS011;10263;48.716;8.760;2024-01-30T11:05:13;4.87;;;3.97;;
20207;SDS011;10263;48.716;8.760;2024-01-30T11:07:40;5.17;;;4.40;;
20207;SDS011;10263;48.716;8.760;2024-01-30T11:10:07;4.57;;;3.40;;
20207;SDS011;10263;48.716;8.760;2024-01-30T11:12:39;5.07;;;3.20;;
20207;SDS011;10263;48.716;8.760;2024-01-30T11:15:08;3.50;;;2.50;;
20207;SDS011;10263;48.716;8.760;2024-01-30T11:17:40;4.03;;;2.50;;
20207;SDS011;10263;48.716;8.760;2024-01-30T11:20:09;4.03;;;2.83;;
20207;SDS011;10263;48.716;8.760;2024-01-30T11:22:36;4.03;;;2.90;;
20207;SDS011;10263;48.716;8.760;2024-01-30T11:25:03;5.17;;;3.40;;
20207;SDS011;10263;48.716;8.760;2024-01-30T11:27:30;4.10;;;3.40;;
20207;SDS011;10263;48.716;8.760;2024-01-30T11:30:02;4.83;;;3.20;;
20207;SDS011;10263;48.716;8.760;2024-01-30T11:32:29;6.00;;;3.20;;
20207;SDS011;10263;48.716;8.760;2024-01-30T11:34:55;3.80;;;2.90;;
20207;SDS011;10263;48.716;8.760;2024-01-30T11:37:24;5.07;;;3.20;;
20207;SDS011;10263;48.716;8.760;2024-01-30T11:39:54;3.37;;;2.83;;
20207;SDS011;10263;48.716;8.760;2024-01-30T11:42:22;4.80;;;3.20;;
20207;SDS011;10263;48.716;8.760;2024-01-30T11:44:50;4.27;;;3.17;;
20207;SDS011;10263;48.716;8.760;2024-01-30T11:47:19;8.77;;;5.63;;
20207;SDS011;10263;48.716;8.760;2024-01-30T11:49:45;5.13;;;4.13;;
20207;SDS011;10263;48.716;8.760;2024-01-30T11:52:12;3.93;;;2.90;;
20207;SDS011;10263;48.716;8.760;2024-01-30T11:54:39;5.00;;;3.63;;
20207;SDS011;10263;48.716;8.760;2024-01-30T11:57:06;5.07;;;3.83;;
20207;SDS011;10263;48.716;8.760;2024-01-30T11:59:33;4.33;;;3.60;;
20207;SDS011;10263;48.716;8.760;2024-01-30T12:02:00;4.50;;;3.10;;
20207;SDS011;10263;48.716;8.760;2024-01-30T12:04:29;4.30;;;3.33;;
20207;SDS011;10263;48.716;8.760;2024-01-30T12:06:56;4.72;;;3.20;;
20207;SDS011;10263;48.716;8.760;2024-01-30T12:09:22;3.88;;;3.10;;
20207;SDS011;10263;48.716;8.760;2024-01-30T12:11:50;3.38;;;3.03;;
20207;SDS011;10263;48.716;8.760;2024-01-30T12:14:16;3.92;;;3.15;;
20207;SDS011;10263;48.716;8.760;2024-01-30T12:16:47;4.18;;;3.50;;
20207;SDS011;10263;48.716;8.760;2024-01-30T12:19:21;4.30;;;3.22;;
20207;SDS011;10263;48.716;8.760;2024-01-30T12:21:54;4.78;;;3.30;;
20207;SDS011;10263;48.716;8.760;2024-01-30T12:24:22;5.00;;;3.05;;
20207;SDS011;10263;48.716;8.760;2024-01-30T12:26:48;4.45;;;3.15;;
20207;SDS011;10263;48.716;8.760;2024-01-30T12:29:16;5.13;;;3.67;;
20207;SDS011;10263;48.716;8.760;2024-01-30T12:31:43;5.70;;;3.70;;
20207;SDS011;10263;48.716;8.760;2024-01-30T12:34:13;7.43;;;4.03;;
20207;SDS011;10263;48.716;8.760;2024-01-30T12:36:40;4.10;;;3.50;;
20207;SDS011;10263;48.716;8.760;2024-01-30T12:39:11;4.53;;;3.60;;
20207;SDS011;10263;48.716;8.760;2024-01-30T12:41:39;4.93;;;3.28;;
20207;SDS011;10263;48.716;8.760;2024-01-30T12:44:06;7.43;;;3.95;;
20207;SDS011;10263;48.716;8.760;2024-01-30T12:46:34;7.55;;;3.55;;
20207;SDS011;10263;48.716;8.760;2024-01-30T12:49:01;3.38;;;3.08;;
20207;SDS011;10263;48.716;8.760;2024-01-30T12:51:28;4.57;;;3.28;;
20207;SDS011;10263;48.716;8.760;2024-01-30T12:53:54;3.83;;;3.03;;
20207;SDS011;10263;48.716;8.760;2024-01-30T12:56:23;4.60;;;2.78;;
20207;SDS011;10263;48.716;8.760;2024-01-30T12:58:49;4.07;;;2.63;;
20207;SDS011;10263;48.716;8.760;2024-01-30T13:01:16;3.05;;;2.70;;
20207;SDS011;10263;48.716;8.760;2024-01-30T13:03:43;4.82;;;3.00;;
20207;SDS011;10263;48.716;8.760;2024-01-30T13:06:10;7.07;;;2.65;;
20207;SDS011;10263;48.716;8.760;2024-01-30T13:08:37;3.45;;;2.53;;
20207;SDS011;10263;48.716;8.760;2024-01-30T13:11:04;4.65;;;2.70;;
20207;SDS011;10263;48.716;8.760;2024-01-30T13:13:32;3.13;;;2.58;;
20207;SDS011;10263;48.716;8.760;2024-01-30T13:16:00;4.10;;;2.70;;
20207;SDS011;10263;48.716;8.760;2024-01-30T13:18:27;3.95;;;2.67;;
20207;SDS011;10263;48.716;8.760;2024-01-30T13:20:54;3.03;;;2.30;;
20207;SDS011;10263;48.716;8.760;2024-01-30T13:23:21;2.42;;;2.22;;
20207;SDS011;10263;48.716;8.760;2024-01-30T13:25:48;4.05;;;2.70;;
20207;SDS011;10263;48.716;8.760;2024-01-30T13:28:15;3.85;;;2.53;;
20207;SDS011;10263;48.716;8.760;2024-01-30T13:30:43;3.80;;;2.50;;
20207;SDS011;10263;48.716;8.760;2024-01-30T13:33:10;3.17;;;2.30;;
20207;SDS011;10263;48.716;8.760;2024-01-30T13:35:37;2.78;;;2.20;;
20207;SDS011;10263;48.716;8.760;2024-01-30T13:38:03;2.47;;;2.20;;
20207;SDS011;10263;48.716;8.760;2024-01-30T13:40:30;3.33;;;2.35;;
20207;SDS011;10263;48.716;8.760;2024-01-30T13:42:57;6.28;;;2.45;;
20207;SDS011;10263;48.716;8.760;2024-01-30T13:45:24;3.33;;;2.38;;
20207;SDS011;10263;48.716;8.760;2024-01-30T13:47:52;3.40;;;2.60;;
20207;SDS011;10263;48.716;8.760;2024-01-30T13:50:19;2.60;;;2.28;;
20207;SDS011;10263;48.716;8.760;2024-01-30T13:52:45;4.03;;;2.75;;
20207;SDS011;10263;48.716;8.760;2024-01-30T13:55:12;2.90;;;2.60;;
20207;SDS011;10263;48.716;8.760;2024-01-30T13:57:39;3.90;;;3.25;;
20207;SDS011;10263;48.716;8.760;2024-01-30T14:00:06;3.65;;;2.10;;
20207;SDS011;10263;48.716;8.760;2024-01-30T14:02:40;4.40;;;2.45;;
20207;SDS011;10263;48.716;8.760;2024-01-30T14:05:08;3.85;;;2.60;;
20207;SDS011;10263;48.716;8.760;2024-01-30T14:07:35;6.03;;;2.63;;
20207;SDS011;10263;48.716;8.760;2024-01-30T14:10:04;3.90;;;2.42;;
20207;SDS011;10263;48.716;8.760;2024-01-30T14:12:31;2.55;;;2.35;;
20207;SDS011;10263;48.716;8.760;2024-01-30T14:14:58;2.83;;;2.30;;
20207;SDS011;10263;48.716;8.760;2024-01-30T14:17:25;3.10;;;2.22;;
20207;SDS011;10263;48.716;8.760;2024-01-30T14:19:52;2.70;;;2.00;;
20207;SDS011;10263;48.716;8.760;2024-01-30T14:22:20;5.05;;;2.50;;
20207;SDS011;10263;48.716;8.760;2024-01-30T14:24:47;6.15;;;2.55;;
20207;SDS011;10263;48.716;8.760;2024-01-30T14:27:13;3.15;;;2.15;;
20207;SDS011;10263;48.716;8.760;2024-01-30T14:29:40;4.45;;;3.20;;
20207;SDS011;10263;48.716;8.760;2024-01-30T14:32:08;4.03;;;2.55;;
20207;SDS011;10263;48.716;8.760;2024-01-30T14:34:35;2.90;;;2.22;;
20207;SDS011;10263;48.716;8.760;2024-01-30T14:37:02;3.53;;;2.65;;
20207;SDS011;10263;48.716;8.760;2024-01-30T14:39:30;3.75;;;2.40;;
20207;SDS011;10263;48.716;8.760;2024-01-30T14:41:57;5.82;;;3.85;;
20207;SDS011;10263;48.716;8.760;2024-01-30T14:44:24;15.02;;;6.45;;
20207;SDS011;10263;48.716;8.760;2024-01-30T14:46:51;10.00;;;6.05;;
20207;SDS011;10263;48.716;8.760;2024-01-30T14:49:18;4.82;;;3.63;;